Time;durP1;ratioP1;P1;durP2;ratioP2;P2;SDS_P1;SDS_P2;PMS_P1;PMS_P2;Temp;Humidity;BMP_temperature;BMP_pressure;BME280_temperature;BME280_humidity;BME280_pressure;Samples;Min_cycle;Max_cycle;Signal;HPM_P1;HPM_P2
2024/01/07 00:02:24;;;;;;;6.13;5.63;;;4.80;99.90;;;;;;5072820;28;20210;-63
2024/01/07 00:04:51;;;;;;;7.20;6.50;;;4.80;99.90;;;;;;5072651;28;20672;-63
2024/01/07 00:07:19;;;;;;;7.55;6.93;;;4.80;99.90;;;;;;5081791;28;20201;-63
2024/01/07 00:09:48;;;;;;;7.93;7.22;;;4.70;99.90;;;;;;5084992;28;20228;-63
2024/01/07 00:12:15;;;;;;;8.38;7.55;;;4.80;99.90;;;;;;5073393;28;20208;-63
2024/01/07 00:14:42;;;;;;;7.40;6.70;;;4.70;99.90;;;;;;5072757;28;20600;-63
2024/01/07 00:17:09;;;;;;;7.90;6.40;;;4.70;99.90;;;;;;5072707;28;20288;-62
2024/01/07 00:19:38;;;;;;;7.25;6.70;;;4.70;99.90;;;;;;5078588;28;20221;-63
2024/01/07 00:22:05;;;;;;;8.10;6.32;;;4.70;99.90;;;;;;5082162;28;20248;-63
2024/01/07 00:24:32;;;;;;;8.40;6.72;;;4.80;99.90;;;;;;5073094;28;20258;-63
2024/01/07 00:27:00;;;;;;;8.38;6.93;;;4.70;99.90;;;;;;5081673;28;20209;-62
2024/01/07 00:29:27;;;;;;;8.15;6.63;;;4.80;99.90;;;;;;5084451;28;20716;-63
2024/01/07 00:31:53;;;;;;;7.72;6.82;;;4.70;99.90;;;;;;5075556;28;20320;-63
2024/01/07 00:34:20;;;;;;;19.10;7.18;;;4.80;99.90;;;;;;5070719;28;20206;-63
2024/01/07 00:36:47;;;;;;;7.20;6.50;;;4.80;99.90;;;;;;5070394;28;20228;-63
2024/01/07 00:39:14;;;;;;;7.32;6.72;;;4.70;99.90;;;;;;5076176;28;20221;-63
2024/01/07 00:41:41;;;;;;;8.48;6.20;;;4.80;99.90;;;;;;5075554;28;20602;-62
2024/01/07 00:44:09;;;;;;;7.78;6.90;;;4.80;99.90;;;;;;5085447;28;20205;-63
2024/01/07 00:46:35;;;;;;;7.60;6.80;;;4.80;99.90;;;;;;5078691;28;20216;-63
2024/01/07 00:49:02;;;;;;;7.72;7.03;;;4.80;99.90;;;;;;5076723;28;20737;-63
2024/01/07 00:51:29;;;;;;;7.20;6.50;;;4.80;99.90;;;;;;5077131;28;20202;-63
2024/01/07 00:53:56;;;;;;;7.50;6.90;;;4.70;99.90;;;;;;5081089;28;20297;-63
2024/01/07 00:56:26;;;;;;;6.20;5.50;;;4.70;99.90;;;;;;5091502;28;20207;-63
2024/01/07 00:58:53;;;;;;;6.70;6.10;;;4.70;99.90;;;;;;5108601;22;20442;-56
2024/01/07 01:01:21;;;;;;;7.05;6.18;;;4.70;99.90;;;;;;5069874;28;20319;-57
2024/01/07 01:03:48;;;;;;;6.90;6.30;;;4.70;99.90;;;;;;5072665;28;20212;-57
2024/01/07 01:06:15;;;;;;;7.65;6.95;;;4.70;99.90;;;;;;5077270;28;20292;-55
2024/01/07 01:08:42;;;;;;;8.45;6.78;;;4.70;99.90;;;;;;5073908;28;20231;-56
2024/01/07 01:11:11;;;;;;;6.03;5.47;;;4.70;99.90;;;;;;5076927;28;20294;-55
2024/01/07 01:13:38;;;;;;;7.28;6.68;;;4.70;99.90;;;;;;5077446;28;20292;-56
2024/01/07 01:16:05;;;;;;;11.07;7.20;;;4.70;99.90;;;;;;5077168;28;20643;-56
2024/01/07 01:18:33;;;;;;;8.07;6.97;;;4.70;99.90;;;;;;5076770;28;20221;-55
2024/01/07 01:21:00;;;;;;;8.20;7.15;;;4.60;99.90;;;;;;5076809;28;20229;-58
2024/01/07 01:23:27;;;;;;;10.15;7.60;;;4.60;99.90;;;;;;5077091;28;20207;-57
2024/01/07 01:25:54;;;;;;;8.52;7.43;;;4.60;99.90;;;;;;5076786;28;20849;-55
2024/01/07 01:28:20;;;;;;;9.48;8.32;;;4.60;99.90;;;;;;5077089;28;20201;-60
2024/01/07 01:30:47;;;;;;;10.95;7.57;;;4.60;99.90;;;;;;5076635;28;20225;-59
2024/01/07 01:33:14;;;;;;;9.63;7.30;;;4.60;99.90;;;;;;5077232;28;20228;-58
2024/01/07 01:35:43;;;;;;;8.48;6.72;;;4.50;99.90;;;;;;5077118;28;20237;-56
2024/01/07 01:38:11;;;;;;;8.90;8.15;;;4.50;99.90;;;;;;5072649;28;20340;-58
2024/01/07 01:40:38;;;;;;;9.15;8.30;;;4.50;99.90;;;;;;5076448;28;20279;-56
2024/01/07 01:43:05;;;;;;;10.38;7.95;;;4.50;99.90;;;;;;5076959;28;20575;-55
2024/01/07 01:45:31;;;;;;;7.03;5.82;;;4.50;99.90;;;;;;5076982;28;20285;-54
2024/01/07 01:47:58;;;;;;;9.95;7.85;;;4.50;99.90;;;;;;5076935;28;20564;-57
2024/01/07 01:50:25;;;;;;;8.35;7.53;;;4.50;99.90;;;;;;5076417;28;20221;-59
2024/01/07 01:52:56;;;;;;;9.80;8.77;;;4.50;99.90;;;;;;5075717;28;20207;-59
2024/01/07 01:55:22;;;;;;;9.00;8.10;;;4.50;99.90;;;;;;5073280;28;20210;-56
2024/01/07 01:57:50;;;;;;;15.18;8.50;;;4.50;99.90;;;;;;5073740;28;20644;-58
2024/01/07 02:00:19;;;;;;;10.55;8.07;;;4.50;99.90;;;;;;5072942;28;20247;-55
2024/01/07 02:02:45;;;;;;;11.18;7.95;;;4.50;99.90;;;;;;5073408;28;20292;-59
2024/01/07 02:05:13;;;;;;;14.88;10.48;;;4.50;99.90;;;;;;5073474;28;20621;-58
2024/01/07 02:07:40;;;;;;;11.88;8.13;;;4.50;99.90;;;;;;5073376;28;20301;-59
2024/01/07 02:10:09;;;;;;;9.18;8.23;;;4.50;99.90;;;;;;5064008;28;20313;-58
2024/01/07 02:12:36;;;;;;;11.93;9.15;;;4.50;99.90;;;;;;5073815;28;20738;-58
2024/01/07 02:15:03;;;;;;;9.93;8.93;;;4.50;99.90;;;;;;5073854;28;20686;-57
2024/01/07 02:17:30;;;;;;;11.18;10.02;;;4.50;99.90;;;;;;5073857;28;20212;-56
2024/01/07 02:19:57;;;;;;;10.57;8.63;;;4.50;99.90;;;;;;5073349;28;20232;-59
2024/01/07 02:22:24;;;;;;;9.80;8.80;;;4.50;99.90;;;;;;5073911;28;20331;-56
2024/01/07 02:24:52;;;;;;;11.07;10.07;;;4.60;99.90;;;;;;5073627;28;20718;-57
2024/01/07 02:27:19;;;;;;;12.98;9.95;;;4.60;99.90;;;;;;5073519;28;20193;-59
2024/01/07 02:29:46;;;;;;;13.77;10.13;;;4.60;99.90;;;;;;5073416;28;20602;-57
2024/01/07 02:32:12;;;;;;;10.98;9.52;;;4.60;99.90;;;;;;5073661;28;20295;-53
2024/01/07 02:34:39;;;;;;;12.98;10.20;;;4.60;99.90;;;;;;5072803;28;20220;-59
2024/01/07 02:37:06;;;;;;;11.90;10.90;;;4.60;99.90;;;;;;5072707;28;20218;-55
2024/01/07 02:39:33;;;;;;;14.05;11.57;;;4.60;99.90;;;;;;5073387;28;20312;-57
2024/01/07 02:42:01;;;;;;;13.00;11.60;;;4.70;99.90;;;;;;5073164;28;20700;-57
2024/01/07 02:44:28;;;;;;;13.02;11.63;;;4.70;99.90;;;;;;5073149;28;20209;-58
2024/01/07 02:46:55;;;;;;;14.80;11.30;;;4.70;99.90;;;;;;5072712;28;20582;-57
2024/01/07 02:49:21;;;;;;;16.67;11.55;;;4.70;99.90;;;;;;5072983;28;20228;-58
2024/01/07 02:51:49;;;;;;;13.70;11.13;;;4.70;99.90;;;;;;5073367;28;20252;-59
2024/01/07 02:54:16;;;;;;;20.65;11.93;;;4.80;99.90;;;;;;5073449;28;20238;-59
2024/01/07 02:56:43;;;;;;;11.93;10.82;;;4.80;99.90;;;;;;5073196;28;20288;-58
2024/01/07 02:59:11;;;;;;;12.73;11.30;;;4.90;99.90;;;;;;5072874;28;20233;-59
2024/01/07 03:01:40;;;;;;;13.68;11.95;;;4.90;99.90;;;;;;5072928;28;20264;-58
2024/01/07 03:04:07;;;;;;;12.35;11.35;;;4.90;99.90;;;;;;5072982;28;20258;-58
2024/01/07 03:06:34;;;;;;;11.85;10.13;;;4.90;99.90;;;;;;5072910;28;20206;-59
2024/01/07 03:09:01;;;;;;;11.00;9.57;;;5.00;99.90;;;;;;5072771;28;20672;-57
2024/01/07 03:11:27;;;;;;;11.55;9.95;;;5.00;99.90;;;;;;5073066;28;20296;-57
2024/01/07 03:13:54;;;;;;;14.40;11.75;;;5.00;99.90;;;;;;5072803;28;20575;-58
2024/01/07 03:16:23;;;;;;;11.65;9.43;;;5.00;99.90;;;;;;5072559;28;20237;-56
2024/01/07 03:18:50;;;;;;;12.50;10.40;;;5.00;99.90;;;;;;5072763;28;20230;-58
2024/01/07 03:21:20;;;;;;;20.90;10.93;;;5.00;99.90;;;;;;5072403;28;20318;-58
2024/01/07 03:23:48;;;;;;;12.93;10.40;;;5.00;99.90;;;;;;5072460;28;20297;-57
2024/01/07 03:26:15;;;;;;;11.82;10.00;;;5.00;99.90;;;;;;5072439;28;20206;-57
2024/01/07 03:28:42;;;;;;;24.25;19.10;;;5.00;99.90;;;;;;5072119;28;20283;-58
2024/01/07 03:31:10;;;;;;;19.35;11.57;;;5.00;99.90;;;;;;5072388;28;20208;-55
2024/01/07 03:33:39;;;;;;;16.67;10.75;;;5.00;99.90;;;;;;5072582;28;20207;-57
2024/01/07 03:36:08;;;;;;;13.60;11.18;;;5.00;99.90;;;;;;5072273;28;20232;-59
2024/01/07 03:38:35;;;;;;;11.48;9.43;;;5.00;99.90;;;;;;5072161;28;20676;-56
2024/01/07 03:41:02;;;;;;;12.48;9.70;;;5.00;99.90;;;;;;5071787;28;20312;-58
2024/01/07 03:43:29;;;;;;;9.55;8.63;;;5.00;99.90;;;;;;5072109;28;20589;-58
2024/01/07 03:45:56;;;;;;;10.15;8.50;;;5.00;99.90;;;;;;5072214;28;20210;-55
2024/01/07 03:48:23;;;;;;;14.73;9.95;;;5.00;99.90;;;;;;5072204;28;20237;-55
2024/01/07 03:50:51;;;;;;;14.32;8.75;;;4.90;99.90;;;;;;5071793;28;20225;-56
2024/01/07 03:53:19;;;;;;;11.65;9.75;;;4.90;99.90;;;;;;5072146;28;20239;-57
2024/01/07 03:55:46;;;;;;;12.48;10.30;;;5.00;99.90;;;;;;5071585;28;20706;-56
2024/01/07 03:58:13;;;;;;;11.15;9.45;;;5.00;99.90;;;;;;5072385;28;20297;-57
2024/01/07 04:00:39;;;;;;;11.80;9.13;;;4.90;99.90;;;;;;5071665;28;20730;-56
2024/01/07 04:03:06;;;;;;;9.55;8.25;;;5.00;99.90;;;;;;5072030;28;20229;-55
2024/01/07 04:05:33;;;;;;;10.50;8.75;;;5.00;99.90;;;;;;5072014;28;20205;-58
2024/01/07 04:08:02;;;;;;;15.40;9.82;;;5.00;99.90;;;;;;5071846;28;20209;-58
2024/01/07 04:10:29;;;;;;;10.32;8.48;;;5.00;99.90;;;;;;5071362;28;20320;-57
2024/01/07 04:12:56;;;;;;;10.77;8.20;;;5.00;99.90;;;;;;5071953;28;20256;-57
2024/01/07 04:15:22;;;;;;;11.23;9.00;;;5.00;99.90;;;;;;5071913;28;20206;-56
2024/01/07 04:17:49;;;;;;;9.88;8.18;;;5.00;99.90;;;;;;5071416;28;20201;-56
2024/01/07 04:20:16;;;;;;;9.60;8.38;;;5.00;99.90;;;;;;5070536;28;20228;-57
2024/01/07 04:22:43;;;;;;;12.07;9.57;;;4.90;99.90;;;;;;5071734;28;20233;-59
2024/01/07 04:25:11;;;;;;;11.38;8.75;;;4.90;99.90;;;;;;5071593;28;20206;-54
2024/01/07 04:27:38;;;;;;;16.30;9.18;;;4.90;99.90;;;;;;5071614;28;20212;-57
2024/01/07 04:30:06;;;;;;;11.25;10.13;;;5.00;99.90;;;;;;5071480;28;20309;-59
2024/01/07 04:32:33;;;;;;;10.88;9.60;;;4.90;99.90;;;;;;5071750;28;20632;-58
2024/01/07 04:35:00;;;;;;;12.05;9.10;;;4.90;99.90;;;;;;5071684;28;20205;-56
2024/01/07 04:37:27;;;;;;;11.52;9.07;;;4.90;99.90;;;;;;5071629;28;20201;-57
2024/01/07 04:39:54;;;;;;;9.85;8.63;;;4.90;99.90;;;;;;5071489;28;20225;-55
2024/01/07 04:42:22;;;;;;;11.43;9.63;;;4.90;99.90;;;;;;5071385;28;20228;-54
2024/01/07 04:44:49;;;;;;;13.73;9.48;;;4.90;99.90;;;;;;5071367;28;20209;-55
2024/01/07 04:47:27;;;;;;;11.13;9.90;;;4.90;99.90;;;;;;5071625;28;20232;-55
2024/01/07 04:49:54;;;;;;;10.80;9.73;;;4.80;99.90;;;;;;5071013;28;20229;-56
2024/01/07 04:52:22;;;;;;;10.45;9.45;;;4.90;99.90;;;;;;5071489;28;20198;-56
2024/01/07 04:54:49;;;;;;;9.80;8.90;;;4.90;99.90;;;;;;5071359;28;20678;-55
2024/01/07 04:57:16;;;;;;;12.68;9.00;;;4.80;99.90;;;;;;5071176;28;20300;-58
2024/01/07 04:59:44;;;;;;;8.75;7.85;;;4.80;99.90;;;;;;5071138;28;20324;-57
2024/01/07 05:02:11;;;;;;;11.65;8.77;;;4.80;99.90;;;;;;5071047;28;20260;-58
2024/01/07 05:04:38;;;;;;;12.18;9.93;;;4.80;99.90;;;;;;5071223;28;20205;-58
2024/01/07 05:07:05;;;;;;;10.25;9.20;;;4.80;99.90;;;;;;5071087;28;20212;-58
2024/01/07 05:09:33;;;;;;;8.93;8.02;;;4.80;99.90;;;;;;5071171;28;20316;-59
2024/01/07 05:12:00;;;;;;;10.75;8.52;;;4.80;99.90;;;;;;5071184;28;20206;-57
2024/01/07 05:14:27;;;;;;;13.00;8.73;;;4.80;99.90;;;;;;5071118;28;20205;-58
2024/01/07 05:16:56;;;;;;;12.38;8.32;;;4.70;99.90;;;;;;5071037;28;20210;-58
2024/01/07 05:19:23;;;;;;;11.65;8.98;;;4.70;99.90;;;;;;5070916;28;20240;-58
2024/01/07 05:21:50;;;;;;;10.90;8.75;;;4.70;99.90;;;;;;5071262;28;20287;-60
2024/01/07 05:24:17;;;;;;;11.07;8.77;;;4.70;99.90;;;;;;5071261;28;20206;-57
2024/01/07 05:26:45;;;;;;;10.38;8.02;;;4.70;99.90;;;;;;5071224;28;20612;-58
2024/01/07 05:29:12;;;;;;;9.07;7.85;;;4.60;99.90;;;;;;5072197;28;20221;-54
2024/01/07 05:31:39;;;;;;;9.40;7.63;;;4.60;99.90;;;;;;5074752;28;20698;-55
2024/01/07 05:34:07;;;;;;;9.48;8.10;;;4.60;99.90;;;;;;5074983;28;20304;-58
2024/01/07 05:36:34;;;;;;;8.20;6.75;;;4.60;99.90;;;;;;5074864;28;20206;-57
2024/01/07 05:39:01;;;;;;;9.68;8.65;;;4.60;99.90;;;;;;5074499;28;20270;-58
2024/01/07 05:41:27;;;;;;;9.25;7.63;;;4.60;99.90;;;;;;5074611;28;20297;-58
2024/01/07 05:43:54;;;;;;;10.23;8.52;;;4.60;99.90;;;;;;5074630;28;20310;-58
2024/01/07 05:46:21;;;;;;;11.75;8.38;;;4.60;99.90;;;;;;5074385;28;20213;-56
2024/01/07 05:48:49;;;;;;;8.13;7.32;;;4.60;99.90;;;;;;5074614;28;20297;-58
2024/01/07 05:51:17;;;;;;;11.27;9.05;;;4.60;99.90;;;;;;5074229;28;20300;-54
2024/01/07 05:53:45;;;;;;;15.88;8.57;;;4.60;99.90;;;;;;5074387;28;20297;-58
2024/01/07 05:56:12;;;;;;;10.02;8.93;;;4.50;99.90;;;;;;5074408;28;20216;-56
2024/01/07 05:58:39;;;;;;;11.00;9.90;;;4.50;99.90;;;;;;5073994;28;20209;-58
2024/01/07 06:01:07;;;;;;;12.45;9.93;;;4.50;99.90;;;;;;5073791;28;20296;-57
2024/01/07 06:03:34;;;;;;;10.05;8.57;;;4.50;99.90;;;;;;5074471;28;20233;-57
2024/01/07 06:06:01;;;;;;;10.85;9.60;;;4.50;99.90;;;;;;5074185;28;20213;-56
2024/01/07 06:08:29;;;;;;;10.88;8.93;;;4.50;99.90;;;;;;5074082;28;20205;-56
2024/01/07 06:10:56;;;;;;;9.68;8.10;;;4.50;99.90;;;;;;5073795;28;20312;-54
2024/01/07 06:13:23;;;;;;;9.38;8.43;;;4.50;99.90;;;;;;5074255;28;20204;-56
2024/01/07 06:15:49;;;;;;;12.13;9.00;;;4.50;99.90;;;;;;5073096;28;20214;-56
2024/01/07 06:18:16;;;;;;;13.82;9.15;;;4.50;99.90;;;;;;5073794;28;20212;-56
2024/01/07 06:20:43;;;;;;;9.57;8.57;;;4.50;99.90;;;;;;5073643;28;20225;-58
2024/01/07 06:23:10;;;;;;;12.07;9.63;;;4.40;99.90;;;;;;5073825;28;20227;-56
2024/01/07 06:25:39;;;;;;;10.25;8.68;;;4.40;99.90;;;;;;5073729;28;20214;-58
2024/01/07 06:28:06;;;;;;;11.13;9.80;;;4.40;99.90;;;;;;5073958;28;20267;-57
2024/01/07 06:30:33;;;;;;;13.93;9.63;;;4.40;99.90;;;;;;5073615;28;20232;-55
2024/01/07 06:33:00;;;;;;;13.20;9.88;;;4.40;99.90;;;;;;5073954;28;20198;-56
2024/01/07 06:35:27;;;;;;;11.43;9.75;;;4.40;99.90;;;;;;5073742;28;20300;-54
2024/01/07 06:37:54;;;;;;;10.15;8.52;;;4.40;99.90;;;;;;5073590;28;20206;-55
2024/01/07 06:40:21;;;;;;;12.27;10.55;;;4.40;99.90;;;;;;5072729;28;20222;-53
2024/01/07 06:42:49;;;;;;;9.20;8.30;;;4.30;99.90;;;;;;5073397;28;20320;-56
2024/01/07 06:45:16;;;;;;;9.88;8.95;;;4.30;99.90;;;;;;5073574;28;20296;-58
2024/01/07 06:47:43;;;;;;;11.70;8.77;;;4.30;99.90;;;;;;5073313;28;20668;-59
2024/01/07 06:50:11;;;;;;;8.55;7.75;;;4.20;99.90;;;;;;5073062;28;20221;-58
2024/01/07 06:52:37;;;;;;;12.77;9.18;;;4.20;99.90;;;;;;5073194;28;20237;-59
2024/01/07 06:55:05;;;;;;;13.65;9.98;;;4.20;99.90;;;;;;5073763;28;20233;-56
2024/01/07 06:57:31;;;;;;;11.98;9.27;;;4.10;99.90;;;;;;5073128;28;20212;-55
2024/01/07 07:00:00;;;;;;;10.80;9.10;;;4.10;99.90;;;;;;5073045;28;20233;-55
2024/01/07 07:02:26;;;;;;;9.48;8.57;;;4.00;99.90;;;;;;5072862;28;20630;-55
2024/01/07 07:04:53;;;;;;;9.90;8.68;;;4.00;99.90;;;;;;5072927;28;20212;-54
2024/01/07 07:07:20;;;;;;;15.77;11.07;;;4.00;99.90;;;;;;5073154;28;20528;-55
2024/01/07 07:09:47;;;;;;;7.30;6.68;;;3.90;99.90;;;;;;5072673;28;20757;-57
2024/01/07 07:12:14;;;;;;;7.85;6.82;;;3.80;99.90;;;;;;5073283;28;20205;-57
2024/01/07 07:14:41;;;;;;;11.27;9.63;;;3.80;99.90;;;;;;5072900;28;20206;-57
2024/01/07 07:17:09;;;;;;;8.18;6.53;;;3.80;99.90;;;;;;5072944;28;20206;-57
2024/01/07 07:19:36;;;;;;;7.85;6.18;;;3.70;99.90;;;;;;5072673;28;20226;-59
2024/01/07 07:22:03;;;;;;;7.50;6.70;;;3.70;99.90;;;;;;5072651;28;20296;-56
2024/01/07 07:24:29;;;;;;;6.97;6.15;;;3.70;99.90;;;;;;5072932;28;20211;-54
2024/01/07 07:26:56;;;;;;;7.75;6.05;;;3.70;99.90;;;;;;5072707;28;20209;-57
2024/01/07 07:29:23;;;;;;;8.00;6.30;;;3.60;99.90;;;;;;5072225;28;20232;-55
2024/01/07 07:31:50;;;;;;;6.05;5.50;;;3.60;99.90;;;;;;5072493;28;20201;-57
2024/01/07 07:34:19;;;;;;;6.22;5.63;;;3.60;99.90;;;;;;5072484;28;20208;-53
2024/01/07 07:36:46;;;;;;;5.85;5.35;;;3.50;99.90;;;;;;5072761;28;20201;-56
2024/01/07 07:39:14;;;;;;;5.72;5.25;;;3.50;99.90;;;;;;5072073;28;20317;-56
2024/01/07 07:41:41;;;;;;;6.32;5.72;;;3.50;99.90;;;;;;5072456;28;20581;-57
2024/01/07 07:44:07;;;;;;;8.10;5.55;;;3.50;99.90;;;;;;5072170;28;20232;-57
2024/01/07 07:46:34;;;;;;;7.65;5.30;;;3.50;99.90;;;;;;5072158;28;20216;-57
2024/01/07 07:49:02;;;;;;;6.13;5.55;;;3.50;99.90;;;;;;5072128;28;20312;-55
2024/01/07 07:51:30;;;;;;;5.55;5.05;;;3.50;99.90;;;;;;5071373;28;20229;-56
2024/01/07 07:53:57;;;;;;;6.40;4.95;;;3.50;99.90;;;;;;5072149;28;20645;-58
2024/01/07 07:56:24;;;;;;;6.45;5.82;;;3.50;99.90;;;;;;5072178;28;20590;-55
2024/01/07 07:58:51;;;;;;;6.38;5.78;;;3.50;99.90;;;;;;5071641;28;20225;-55
2024/01/07 08:01:19;;;;;;;7.60;6.15;;;3.60;99.90;;;;;;5072109;28;20209;-58
2024/01/07 08:03:46;;;;;;;7.53;6.32;;;3.60;99.90;;;;;;5071913;28;20229;-54
2024/01/07 08:06:12;;;;;;;6.65;5.63;;;3.60;99.90;;;;;;5072097;28;20212;-57
2024/01/07 08:08:41;;;;;;;6.90;5.85;;;3.50;99.90;;;;;;5071806;28;20216;-58
2024/01/07 08:11:09;;;;;;;6.55;5.93;;;3.60;99.90;;;;;;5071812;28;20710;-58
2024/01/07 08:13:37;;;;;;;7.05;6.35;;;3.60;99.90;;;;;;5071800;28;20198;-59
2024/01/07 08:16:05;;;;;;;7.28;6.07;;;3.60;99.90;;;;;;5072039;28;20205;-57
2024/01/07 08:18:32;;;;;;;6.57;5.95;;;3.60;99.90;;;;;;5071856;28;20209;-55
2024/01/07 08:20:59;;;;;;;7.45;6.75;;;3.60;99.90;;;;;;5071645;28;20292;-59
2024/01/07 08:23:26;;;;;;;8.05;6.63;;;3.60;99.90;;;;;;5071775;28;20230;-56
2024/01/07 08:25:54;;;;;;;7.75;6.60;;;3.70;99.90;;;;;;5071184;28;20296;-59
2024/01/07 08:28:21;;;;;;;7.78;7.07;;;3.60;99.90;;;;;;5071796;28;20214;-56
2024/01/07 08:30:49;;;;;;;7.28;6.65;;;3.60;99.90;;;;;;5071613;28;20229;-57
2024/01/07 08:33:15;;;;;;;9.90;7.13;;;3.60;99.90;;;;;;5071731;28;20201;-58
2024/01/07 08:35:43;;;;;;;7.38;6.68;;;3.70;99.90;;;;;;5071690;28;20205;-58
2024/01/07 08:38:09;;;;;;;10.13;9.02;;;3.70;99.90;;;;;;5071593;28;20556;-58
2024/01/07 08:40:36;;;;;;;6.93;6.32;;;3.70;99.90;;;;;;5071178;28;20675;-55
2024/01/07 08:43:05;;;;;;;6.80;6.20;;;3.70;99.90;;;;;;5071125;28;20257;-57
2024/01/07 08:45:31;;;;;;;7.70;6.90;;;3.70;99.90;;;;;;5070862;28;20201;-58
2024/01/07 08:47:58;;;;;;;7.97;6.65;;;3.70;99.90;;;;;;5071265;28;20300;-57
2024/01/07 08:50:25;;;;;;;7.25;6.40;;;3.70;99.90;;;;;;5070283;28;20886;-60
2024/01/07 08:52:52;;;;;;;7.70;6.82;;;3.70;99.90;;;;;;5070786;28;20642;-56
2024/01/07 08:55:19;;;;;;;7.72;6.70;;;3.70;99.90;;;;;;5070571;28;20229;-58
2024/01/07 08:57:48;;;;;;;7.82;7.13;;;3.80;99.90;;;;;;5070286;28;20206;-57
2024/01/07 09:00:17;;;;;;;7.47;6.70;;;3.80;99.90;;;;;;5060612;28;20248;-59
2024/01/07 09:02:44;;;;;;;6.82;6.22;;;3.90;99.90;;;;;;5067542;28;20285;-57
2024/01/07 09:05:11;;;;;;;7.80;7.05;;;3.90;99.90;;;;;;5074854;28;20198;-54
2024/01/07 09:07:38;;;;;;;9.32;8.43;;;3.80;99.90;;;;;;5073759;28;20237;-56
2024/01/07 09:10:10;;;;;;;9.10;8.40;;;3.90;99.90;;;;;;5074889;28;20375;-59
2024/01/07 09:12:37;;;;;;;10.52;7.82;;;3.90;99.90;;;;;;5074792;28;20616;-57
2024/01/07 09:15:07;;;;;;;9.85;7.38;;;3.80;99.90;;;;;;5075023;28;20205;-60
2024/01/07 09:17:36;;;;;;;8.30;7.45;;;3.90;99.90;;;;;;5074463;28;20578;-57
2024/01/07 09:20:05;;;;;;;7.57;6.78;;;3.80;99.90;;;;;;5074204;28;20598;-58
2024/01/07 09:22:32;;;;;;;6.43;5.82;;;3.90;99.90;;;;;;5074471;28;20213;-57
2024/01/07 09:24:59;;;;;;;7.18;6.50;;;4.00;99.90;;;;;;5073562;28;20202;-57
2024/01/07 09:27:26;;;;;;;7.65;6.85;;;4.00;99.90;;;;;;5067949;28;20364;-57
2024/01/07 09:29:52;;;;;;;9.18;6.82;;;4.00;99.90;;;;;;5073853;28;20229;-60
2024/01/07 09:32:19;;;;;;;10.57;8.30;;;4.00;99.90;;;;;;5074805;28;20197;-59
2024/01/07 09:34:47;;;;;;;7.90;6.95;;;4.00;99.90;;;;;;5074265;28;20205;-57
2024/01/07 09:37:14;;;;;;;11.05;8.70;;;4.00;99.90;;;;;;5074426;28;20767;-56
2024/01/07 09:39:41;;;;;;;8.40;7.50;;;4.00;99.90;;;;;;5074135;28;20228;-56
2024/01/07 09:42:14;;;;;;;9.00;8.10;;;3.90;99.90;;;;;;5074545;28;20585;-60
2024/01/07 09:44:42;;;;;;;9.75;8.75;;;3.90;99.90;;;;;;5074178;28;20727;-57
2024/01/07 09:47:12;;;;;;;10.48;8.30;;;3.90;99.90;;;;;;5074214;28;20206;-57
2024/01/07 09:49:39;;;;;;;8.52;7.82;;;3.90;99.90;;;;;;5073663;28;20225;-58
2024/01/07 09:52:08;;;;;;;11.65;8.55;;;3.90;99.90;;;;;;5074272;28;20212;-55
2024/01/07 09:54:37;;;;;;;10.32;8.30;;;3.90;99.90;;;;;;5073975;28;20657;-57
2024/01/07 09:57:06;;;;;;;10.32;9.27;;;3.90;99.90;;;;;;5073986;28;20210;-58
2024/01/07 09:59:34;;;;;;;10.43;8.98;;;3.90;99.90;;;;;;5073339;28;20240;-52
2024/01/07 10:02:01;;;;;;;12.50;9.23;;;3.90;99.90;;;;;;5073855;28;20316;-56
2024/01/07 10:04:29;;;;;;;10.75;9.45;;;3.80;99.90;;;;;;5074081;28;20221;-58
2024/01/07 10:06:56;;;;;;;8.73;7.80;;;3.80;99.90;;;;;;5073957;28;20208;-57
2024/01/07 10:09:27;;;;;;;13.73;11.65;;;3.80;99.90;;;;;;5073452;28;20228;-58
2024/01/07 10:11:53;;;;;;;10.50;9.15;;;3.70;99.90;;;;;;5074145;28;20201;-56
2024/01/07 10:14:22;;;;;;;9.60;8.73;;;3.70;99.90;;;;;;5072532;28;20202;-59
2024/01/07 10:16:50;;;;;;;11.48;8.60;;;3.70;99.90;;;;;;5074112;28;20583;-57
2024/01/07 10:19:21;;;;;;;11.35;9.60;;;3.70;99.90;;;;;;5073382;28;20225;-55
2024/01/07 10:22:00;;;;;;;10.27;8.13;;;3.70;99.90;;;;;;5073539;28;20209;-55
2024/01/07 10:24:37;;;;;;;9.23;7.30;;;3.60;99.90;;;;;;5073536;28;20248;-57
2024/01/07 10:27:04;;;;;;;9.20;8.05;;;3.60;99.90;;;;;;5073546;28;20788;-57
2024/01/07 10:29:31;;;;;;;8.02;6.78;;;3.50;99.90;;;;;;5073632;28;20225;-57
2024/01/07 10:31:58;;;;;;;9.02;8.10;;;3.50;99.90;;;;;;5071092;28;20202;-59
2024/01/07 10:34:27;;;;;;;9.50;7.72;;;3.40;99.90;;;;;;5073232;28;20293;-57
2024/01/07 10:36:57;;;;;;;7.97;7.10;;;3.40;99.90;;;;;;5072806;28;20206;-57
2024/01/07 10:39:25;;;;;;;8.48;7.60;;;3.40;99.90;;;;;;5072771;28;20654;-56
2024/01/07 10:41:57;;;;;;;8.88;8.15;;;3.40;99.90;;;;;;5072786;28;20293;-57
2024/01/07 10:44:24;;;;;;;9.73;8.65;;;3.30;99.90;;;;;;5073116;28;20229;-58
2024/01/07 10:46:53;;;;;;;9.73;7.97;;;3.40;99.90;;;;;;5073138;28;20214;-58
2024/01/07 10:49:21;;;;;;;7.40;6.55;;;3.30;99.90;;;;;;5072391;28;20221;-57
2024/01/07 10:52:04;;;;;;;8.80;7.25;;;3.20;99.90;;;;;;5072822;28;20209;-55
2024/01/07 10:54:33;;;;;;;8.35;7.55;;;3.20;99.90;;;;;;5072415;28;20209;-58
2024/01/07 10:57:10;;;;;;;7.25;6.60;;;3.20;99.90;;;;;;5072683;28;20217;-59
2024/01/07 10:59:37;;;;;;;9.15;7.65;;;3.10;99.90;;;;;;5072030;28;20603;-57
2024/01/07 11:02:04;;;;;;;7.45;6.75;;;3.10;99.90;;;;;;5071521;28;20221;-59
2024/01/07 11:04:39;;;;;;;7.57;6.88;;;3.10;99.90;;;;;;5071735;28;20815;-57
2024/01/07 11:07:16;;;;;;;11.77;8.77;;;3.00;99.90;;;;;;5072055;28;20216;-57
2024/01/07 11:09:54;;;;;;;9.65;7.95;;;3.00;99.90;;;;;;5071794;28;20229;-57
2024/01/07 11:12:23;;;;;;;8.75;7.93;;;3.00;99.90;;;;;;5072347;28;20205;-58
2024/01/07 11:14:52;;;;;;;8.23;6.85;;;3.00;99.90;;;;;;5072065;28;20202;-55
2024/01/07 11:17:42;;;;;;;7.65;6.95;;;3.00;99.90;;;;;;5072242;28;20210;-58
2024/01/07 11:20:18;;;;;;;8.25;7.45;;;3.00;99.90;;;;;;5071967;28;20633;-59
2024/01/07 11:22:46;;;;;;;8.52;7.70;;;3.00;99.90;;;;;;5072093;28;20210;-58
2024/01/07 11:25:38;;;;;;;8.18;7.32;;;3.00;99.90;;;;;;5070930;28;20221;-57
2024/01/07 11:28:07;;;;;;;10.15;7.00;;;2.90;99.90;;;;;;5052722;28;20574;-58
2024/01/07 11:30:41;;;;;;;9.35;7.97;;;2.90;99.90;;;;;;5071233;28;20229;-56
2024/01/07 11:33:12;;;;;;;8.38;7.60;;;2.90;99.90;;;;;;5071730;28;20703;-57
2024/01/07 11:36:01;;;;;;;9.65;7.93;;;2.90;99.90;;;;;;5071483;28;20222;-58
2024/01/07 11:38:28;;;;;;;8.23;7.43;;;2.80;99.90;;;;;;5069402;28;20696;-59
2024/01/07 11:40:56;;;;;;;9.05;8.25;;;2.80;99.90;;;;;;5071173;28;20592;-58
2024/01/07 11:43:25;;;;;;;8.25;7.45;;;2.90;99.90;;;;;;5071351;28;20259;-59
2024/01/07 11:45:53;;;;;;;9.43;7.93;;;2.80;99.90;;;;;;5071063;28;20695;-59
2024/01/07 11:48:20;;;;;;;11.20;8.95;;;2.80;99.90;;;;;;5071262;28;20205;-56
2024/01/07 11:50:47;;;;;;;8.63;7.20;;;2.90;99.90;;;;;;5058161;28;20229;-58
2024/01/07 11:53:14;;;;;;;8.75;7.50;;;2.90;99.90;;;;;;5070936;28;20212;-59
2024/01/07 11:55:41;;;;;;;8.15;7.35;;;2.90;99.90;;;;;;5070733;28;20211;-59
2024/01/07 11:58:07;;;;;;;8.68;7.70;;;2.90;99.90;;;;;;5070503;28;20212;-56
2024/01/07 12:00:36;;;;;;;9.18;7.55;;;2.90;99.90;;;;;;5064756;28;20229;-59
2024/01/07 12:03:03;;;;;;;8.43;7.63;;;3.00;99.90;;;;;;5071145;28;20621;-58
2024/01/07 12:05:31;;;;;;;7.72;6.90;;;3.00;99.90;;;;;;5067345;28;20233;-59
2024/01/07 12:07:58;;;;;;;7.88;7.07;;;2.90;99.90;;;;;;5069528;28;20212;-57
2024/01/07 12:10:25;;;;;;;8.40;7.22;;;2.90;99.90;;;;;;5069980;28;20342;-55
2024/01/07 12:12:52;;;;;;;7.28;6.68;;;2.80;99.90;;;;;;5066808;28;20216;-54
2024/01/07 12:15:21;;;;;;;7.90;7.10;;;2.80;99.90;;;;;;5064146;28;20294;-57
2024/01/07 12:18:01;;;;;;;8.68;7.88;;;2.80;99.90;;;;;;5070975;28;20934;-55
2024/01/07 12:20:28;;;;;;;8.60;7.80;;;2.80;99.90;;;;;;5066831;28;20271;-55
2024/01/07 12:22:59;;;;;;;8.20;6.82;;;2.80;99.90;;;;;;5070733;28;20572;-57
2024/01/07 12:25:26;;;;;;;11.00;7.40;;;2.80;99.90;;;;;;5070365;28;20245;-53
2024/01/07 12:27:53;;;;;;;8.07;7.38;;;2.80;99.90;;;;;;5071024;28;20212;-55
2024/01/07 12:30:21;;;;;;;7.60;6.80;;;2.70;99.90;;;;;;5067475;28;20384;-59
2024/01/07 12:32:48;;;;;;;7.57;5.85;;;2.70;99.90;;;;;;5070711;28;20212;-56
2024/01/07 12:35:17;;;;;;;8.40;7.50;;;2.70;99.90;;;;;;5070687;28;20579;-58
2024/01/07 12:37:45;;;;;;;7.80;6.78;;;2.70;99.90;;;;;;5070409;28;20236;-56
2024/01/07 12:40:13;;;;;;;7.60;6.90;;;2.70;99.90;;;;;;5070276;28;20652;-57
2024/01/07 12:42:44;;;;;;;9.07;6.55;;;2.70;99.90;;;;;;5070939;28;20296;-56
2024/01/07 12:45:13;;;;;;;9.00;6.95;;;2.60;99.90;;;;;;5061303;28;20225;-57
2024/01/07 12:47:40;;;;;;;7.68;6.95;;;2.60;99.90;;;;;;5070833;28;20304;-57
2024/01/07 12:50:08;;;;;;;6.95;6.40;;;2.50;99.90;;;;;;5070740;28;20221;-59
2024/01/07 12:52:37;;;;;;;9.13;7.85;;;2.40;99.90;;;;;;5070737;28;20213;-59
2024/01/07 12:55:04;;;;;;;7.30;6.57;;;2.40;99.90;;;;;;5070478;28;20293;-58
2024/01/07 12:57:31;;;;;;;5.60;5.10;;;2.40;99.90;;;;;;5070664;28;20281;-56